• Join FlightAware (Why Join?)
  • Login
  • US Flag 
06:39AM EDT


 

Airport Tracker/Info


-or-


 

Live Flight TrackerFlight Track Log ✈ DAL1903 ✈ 09-Apr-2013 ✈ KLGA - KSRQ

Flight Track Log - Related Links

Times and Time Zones

All times are in EDT time to prevent confusion due to time zone crossing. See the DAL1903 flight status page for this flight to view local times or setup timezone preferences in your user account.

Time Position Orientation Groundspeed Altitude Reporting Facility
EDT Latitude Longitude Course Direction KTS MPH feet Rate Location/Type
11:15AM 40.8167 -73.9167 339° North 197 227 2,400  Level New York TRACON
11:16AM 40.8833 -73.9500 339° North 244 281 5,700 3,300 Climbing New York TRACON
11:17AM 40.9000 -74.0167 288° West 244 281 9,000 3,000 Climbing New York TRACON
11:18AM 40.8500 -74.1167 237° Southwest 280 322 11,700 2,040 Climbing New York TRACON
11:19AM 40.8000 -74.2167 237° Southwest 351 404 13,100 1,740 Climbing New York TRACON
11:21AM 40.6878 -74.4439 237° Southwest 396 456 16,900 1,920 Climbing New York Center
11:22AM 40.6219 -74.5469 230° Southwest 410 472 18,900 2,100 Climbing New York Center
11:23AM 40.5353 -74.6486 222° Southwest 415 478 21,200 1,920 Climbing New York Center
11:24AM 40.4506 -74.7583 225° Southwest 421 484 22,800 1,740 Climbing New York Center
11:25AM 40.3856 -74.8881 237° Southwest 427 491 24,700 2,100 Climbing New York Center
11:26AM 40.3206 -75.0203 237° Southwest 432 497 27,000 2,220 Climbing New York Center
11:27AM 40.2556 -75.1442 236° Southwest 432 497 29,200 1,800 Climbing New York Center
11:28AM 40.1925 -75.2681 236° Southwest 426 490 30,700 1,260 Climbing New York Center
11:29AM 40.1272 -75.3914 235° Southwest 421 484 31,800 900 Climbing New York Center
11:30AM 40.0458 -75.5025 226° Southwest 421 484 32,600 720 Climbing New York Center
11:31AM 39.9661 -75.6164 228° Southwest 444 511 33,300 480 Climbing New York Center
11:33AM 39.8133 -75.8481 229° Southwest 420 483 34,000 240 Climbing Washington Center
11:34AM 39.7358 -75.9667 230° Southwest 426 490 34,000  Level Washington Center
11:35AM 39.6606 -76.0875 231° Southwest 432 497 34,000  Level Washington Center
11:36AM 39.5828 -76.2053 229° Southwest 432 497 34,000  Level Washington Center
11:37AM 39.5050 -76.3231 229° Southwest 432 497 34,000  Level Washington Center
11:38AM 39.4292 -76.4458 231° Southwest 432 497 34,000  Level Washington Center
11:39AM 39.3533 -76.5631 230° Southwest 432 497 34,000  Level Washington Center
11:40AM 39.2772 -76.6856 231° Southwest 432 497 34,000  Level Washington Center
11:41AM 39.1992 -76.7994 229° Southwest 432 497 34,000  Level Washington Center
11:42AM 39.1250 -76.9214 232° Southwest 432 497 34,000  Level Washington Center
11:43AM 39.0550 -77.0244 229° Southwest 432 497 34,000  Level Washington Center
11:44AM 38.9619 -77.1347 223° Southwest 437 503 34,000  Level Washington Center
11:45AM 38.8689 -77.2314 219° Southwest 437 503 34,000  Level Washington Center
11:46AM 38.7756 -77.3411 223° Southwest 447 514 34,000  Level Washington Center
11:47AM 38.6844 -77.4347 219° Southwest 447 514 34,000  Level Washington Center
11:48AM 38.5911 -77.5361 220° Southwest 441 507 34,000  Level Washington Center
11:49AM 38.4914 -77.6475 221° Southwest 432 497 34,000  Level Washington Center
11:50AM 38.4064 -77.7353 219° Southwest 437 503 34,000  Level Washington Center
11:51AM 38.3044 -77.8461 220° Southwest 442 509 34,000  Level Washington Center
11:52AM 38.2214 -77.9333 220° Southwest 435 501 34,000  Level Washington Center
11:53AM 38.1169 -78.0411 219° Southwest 440 506 34,000 240 Level Washington Center
11:54AM 38.0339 -78.1306 220° Southwest 440 506 34,500 600 Climbing Washington Center
11:55AM 37.9442 -78.2275 220° Southwest 435 501 35,300 720 Climbing Washington Center
11:56AM 37.8461 -78.3161 216° Southwest 435 501 36,000 300 Climbing Washington Center
11:57AM 37.7417 -78.4150 217° Southwest 430 495 36,000  Level Washington Center
11:58AM 37.6456 -78.5058 217° Southwest 430 495 36,000  Level Washington Center
11:59AM 37.5494 -78.5964 217° Southwest 436 502 36,000  Level Washington Center
12:00PM 37.4514 -78.6867 216° Southwest 436 502 36,000  Level Washington Center
12:01PM 37.3636 -78.7667 216° Southwest 441 507 36,000  Level Washington Center
12:02PM 37.2675 -78.8567 217° Southwest 441 507 36,000  Level Washington Center
12:03PM 37.1711 -78.9489 217° Southwest 441 507 36,000  Level Washington Center
12:04PM 37.0767 -79.0361 216° Southwest 441 507 36,000  Level Washington Center
12:05PM 36.9825 -79.1228 216° Southwest 441 507 36,000  Level Washington Center
12:06PM 36.8794 -79.2194 217° Southwest 436 502 36,000  Level Washington Center
12:07PM 36.7281 -79.3561 216° Southwest 443 510 36,000  Level Atlanta Center
12:08PM 36.6353 -79.4392 216° Southwest 436 502 36,000  Level Atlanta Center
12:09PM 36.5425 -79.5244 216° Southwest 424 488 36,000  Level Atlanta Center
12:10PM 36.4619 -79.5989 217° Southwest 417 480 36,000  Level Atlanta Center
12:11PM 36.3669 -79.6839 216° Southwest 422 486 36,000  Level Atlanta Center
12:12PM 36.2739 -79.7661 215° Southwest 417 480 36,000  Level Atlanta Center
12:13PM 36.1808 -79.8483 216° Southwest 417 480 36,000  Level Atlanta Center
12:14PM 36.0775 -79.9411 216° Southwest 422 486 36,000  Level Atlanta Center
12:15PM 35.9733 -80.0106 208° Southwest 422 486 36,000  Level Atlanta Center
12:16PM 35.8647 -80.0644 202° Southwest 422 486 36,000  Level Atlanta Center
12:17PM 35.7639 -80.1131 201° Southwest 427 491 36,000  Level Atlanta Center
12:18PM 35.6553 -80.1744 205° Southwest 433 498 36,000  Level Atlanta Center
12:19PM 35.5464 -80.2281 202° Southwest 433 498 36,000  Level Atlanta Center
12:20PM 35.4333 -80.2842 202° Southwest 433 498 36,000  Level Atlanta Center
12:23PM 35.1742 -80.4117 202° Southwest 440 506 36,000  Level Jacksonville Center
12:24PM 35.0628 -80.4683 203° Southwest 429 494 36,000  Level Jacksonville Center
12:25PM 34.9428 -80.5247 201° Southwest 437 503 36,000  Level Jacksonville Center
12:26PM 34.8311 -80.5811 203° Southwest 432 497 36,000 -60 Level Jacksonville Center
12:27PM 34.7258 -80.6344 203° Southwest 427 491 35,900  Descending Jacksonville Center
12:28PM 34.6161 -80.6878 202° Southwest 427 491 36,000  Climbing Jacksonville Center
12:29PM 34.5025 -80.7461 203° Southwest 444 511 36,000  Level Jacksonville Center
12:30PM 34.4081 -80.8364 218° Southwest 434 499 36,000  Level Jacksonville Center
12:31PM 34.3178 -80.9267 220° Southwest 433 498 36,000  Level Jacksonville Center
12:32PM 34.2333 -81.0089 219° Southwest 418 481 36,000  Level Jacksonville Center
12:33PM 34.1531 -81.0833 218° Southwest 407 468 36,000  Level Jacksonville Center
12:34PM 34.0647 -81.1728 220° Southwest 413 475 36,000  Level Jacksonville Center
12:35PM 33.9739 -81.2547 217° Southwest 418 481 36,000  Level Jacksonville Center
12:36PM 33.8811 -81.3442 219° Southwest 418 481 36,000  Level Jacksonville Center
12:38PM 33.6503 -81.5608 218° Southwest 414 476 36,000  Level Atlanta Center
12:39PM 33.5581 -81.6458 218° Southwest 420 483 36,000  Level Atlanta Center
12:40PM 33.4658 -81.7331 218° Southwest 425 489 36,000  Level Atlanta Center
12:41PM 33.3756 -81.8200 219° Southwest 425 489 36,000  Level Atlanta Center
12:42PM 33.2853 -81.9042 218° Southwest 425 489 36,000  Level Atlanta Center
12:43PM 33.1928 -81.9858 216° Southwest 425 489 36,000  Level Atlanta Center
12:44PM 33.1000 -82.0725 218° Southwest 425 489 36,000  Level Atlanta Center
12:45PM 33.0075 -82.1611 219° Southwest 425 489 36,000  Level Atlanta Center
12:46PM 32.9150 -82.2472 218° Southwest 420 483 36,000  Level Atlanta Center
12:47PM 32.8242 -82.3308 218° Southwest 420 483 36,000  Level Atlanta Center
12:48PM 32.7336 -82.4164 218° Southwest 420 483 36,000  Level Atlanta Center
12:49PM 32.6428 -82.4947 216° Southwest 420 483 36,000  Level Atlanta Center
12:50PM 32.5500 -82.5825 219° Southwest 420 483 36,000  Level Atlanta Center
12:51PM 32.4714 -82.6625 221° Southwest 420 483 36,000  Level Atlanta Center
12:52PM 32.3786 -82.7475 218° Southwest 420 483 36,000  Level Atlanta Center
12:53PM 32.2856 -82.8300 217° Southwest 420 483 36,000  Level Atlanta Center
12:54PM 32.1922 -82.9172 218° Southwest 420 483 36,000  Level Atlanta Center
12:55PM 32.0969 -82.9994 216° Southwest 425 489 36,000  Level Atlanta Center
12:56PM 32.0058 -83.0861 219° Southwest 425 489 36,000  Level Atlanta Center
12:57PM 31.9106 -83.1703 217° Southwest 425 489 36,000  Level Atlanta Center
12:58PM 31.7964 -83.2739 218° Southwest 405 466 36,000  Level Jacksonville Center
12:59PM 31.7022 -83.3567 217° Southwest 415 478 36,000 -120 Level Jacksonville Center
01:00PM 31.6036 -83.4342 214° Southwest 425 489 35,800 -540 Descending Jacksonville Center
01:01PM 31.4847 -83.4506 187° South 414 476 35,000 -420 Descending Jacksonville Center
01:02PM 31.3614 -83.4569 183° South 427 491 35,000  Level Jacksonville Center
01:03PM 31.2425 -83.4661 184° South 432 497 35,000  Level Jacksonville Center
01:04PM 31.1358 -83.4750 184° South 437 503 35,000  Level Jacksonville Center
01:05PM 31.0147 -83.4817 183° South 437 503 35,000  Level Jacksonville Center
01:06PM 30.8936 -83.4881 183° South 437 503 35,000  Level Jacksonville Center
01:07PM 30.7661 -83.4969 183° South 425 489 35,000  Level Jacksonville Center
01:08PM 30.6450 -83.5058 184° South 425 489 35,000  Level Jacksonville Center
01:09PM 30.5239 -83.5147 184° South 435 501 35,000  Level Jacksonville Center
01:10PM 30.4047 -83.5211 183° South 440 506 35,000  Level Jacksonville Center
01:11PM 30.2817 -83.5228 181° South 440 506 35,000  Level Jacksonville Center
01:12PM 30.1628 -83.5100 175° South 440 506 35,000  Level Jacksonville Center
01:13PM 30.0417 -83.4925 173° South 440 506 35,000  Level Jacksonville Center
01:14PM 29.9311 -83.4797 174° South 440 506 35,000  Level Jacksonville Center
01:15PM 29.8100 -83.4647 174° South 440 506 35,000 -120 Level Jacksonville Center
01:16PM 29.6869 -83.4497 174° South 440 506 34,800 -900 Descending Jacksonville Center
01:17PM 29.5658 -83.4347 174° South 445 512 33,200 -1,620 Descending Jacksonville Center
01:18PM 29.4469 -83.4172 173° South 445 512 31,600 -1,800 Descending Jacksonville Center
01:19PM 29.3281 -83.4047 175° South 439 505 29,700 -1,320 Descending Jacksonville Center
01:20PM 29.2050 -83.3897 174° South 439 505 29,000 -360 Descending Jacksonville Center
01:21PM 29.0861 -83.3750 174° South 444 511 29,000 -780 Level Jacksonville Center
01:22PM 28.9672 -83.3600 174° South 444 511 27,500 -1,800 Descending Jacksonville Center
01:23PM 28.8503 -83.3217 164° South 444 511 25,500 -1,260 Descending Jacksonville Center
01:24PM 28.7378 -83.2619 155° Southeast 434 499 25,000 -1,020 Descending Jacksonville Center
01:25PM 28.6294 -83.2000 153° Southeast 439 505 23,500 -2,220 Descending Jacksonville Center
01:27PM 28.4333 -83.1000 156° South 409 471 19,000 -2,580 Descending Tampa TRACON
01:28PM 28.3333 -83.0500 156° South 401 461 16,600 -2,460 Descending Tampa TRACON
01:29PM 28.2500 -83.0000 152° Southeast 379 436 14,100 -2,400 Descending Tampa TRACON
01:30PM 28.1500 -82.9500 156° South 359 413 11,800 -1,980 Descending Tampa TRACON
01:31PM 28.0500 -82.9000 156° South 342 394 10,200 -1,320 Descending Tampa TRACON
01:32PM 27.9667 -82.8833 170° South 279 321 9,100 -1,320 Descending Tampa TRACON
01:33PM 27.9000 -82.8500 156° South 279 321 7,500 -1,560 Descending Tampa TRACON
01:34PM 27.8333 -82.8167 156° South 269 310 6,000 -780 Descending Tampa TRACON
01:35PM 27.7500 -82.8000 170° South 265 305 6,000  Level Tampa TRACON
01:36PM 27.6833 -82.7833 168° South 240 276 6,000  Level Tampa TRACON
01:37PM 27.6333 -82.7500 149° Southeast 219 252 6,000 -900 Level Tampa TRACON
01:38PM 27.5833 -82.7333 164° South 211 243 4,400 -1,200 Descending Tampa TRACON
01:39PM 27.5333 -82.7167 164° South 180 207 3,600 -900 Descending Tampa TRACON
01:40PM 27.5000 -82.6833 138° Southeast 168 193 2,700 -840 Descending Tampa TRACON
01:41PM 27.4833 -82.6500 119° Southeast 130 150 2,100 -660 Descending Tampa TRACON
01:42PM 27.4500 -82.6167 138° Southeast 135 155 1,400 -720 Descending Tampa TRACON
01:43PM 27.4333 -82.6000 138° Southeast 129 148 800 -720 Descending Tampa TRACON
01:45PM 27.3954 -82.5544 180° South  Level Estimated
01:52PM 27.3954 -82.5544 180° South  Level Estimated
01:53PM 27.3954 -82.5544 180° South  Level Estimated